GAMB

Mopti Airport

Mali
METAR GAMB 182100Z 32006KT 9999 TS SCT030TCU FEW040CB 27/24 Q1011
Observed Flight Rules
Aug-18 @ 21:00 UTC (3 hours ago) Visual Flight Rules
Wind Visibility Clouds Conditions
320° at 6 knots 10,000+ meters
  • Scattered at 3,000' AGL
  • Few at 4,000' AGL
  • Thunderstorm
Temperatures Readings
Current 27°C / 81°F
Dewpoint 24°C / 75°F
Humidity 84%
Altimeter 29.85" Hg
Pressure 1011 hPa
Elevation 272
METAR GAMB 182100Z 32006KT 9999 TS SCT030TCU FEW040CB 27/24 Q1011
Observed Flight Rules
Aug-18 @ 21:00 UTC
(3 hours ago)
VFR
Wind Visibility
320° at 6 knots 10,000+ meters
Clouds
  • Scattered at 3,000' AGL
  • Few at 4,000' AGL
Conditions
  • Thunderstorm
Temperature Dewpoint
27°C / 81°F 24°C / 75°F
Humidity Altimeter Pressure
84% 29.85" Hg 1011 hPa